createdAt,value
2018-05-24T00:00:26.618Z,6.54
2018-05-24T00:01:27.086Z,6.52
2018-05-24T00:02:27.559Z,6.52
2018-05-24T00:03:28.033Z,6.52
2018-05-24T00:04:28.505Z,6.52
2018-05-24T00:05:28.980Z,6.52
2018-05-24T00:06:29.454Z,6.50
2018-05-24T00:07:29.980Z,6.50
2018-05-24T00:08:30.404Z,6.48
2018-05-24T00:09:30.878Z,6.49
2018-05-24T00:10:31.352Z,6.49
2018-05-24T00:11:31.826Z,6.48
2018-05-24T00:12:32.300Z,6.47
2018-05-24T00:13:32.775Z,6.48
2018-05-24T00:14:33.250Z,6.45
2018-05-24T00:15:33.725Z,6.46
2018-05-24T00:16:34.199Z,6.46
2018-05-24T00:17:34.722Z,6.45
2018-05-24T00:18:35.146Z,6.44
2018-05-24T00:19:35.823Z,6.45
2018-05-24T00:20:36.096Z,6.43
2018-05-24T00:21:36.569Z,6.44
2018-05-24T00:22:37.042Z,6.42
2018-05-24T00:23:37.515Z,6.42
2018-05-24T00:24:37.988Z,6.41
2018-05-24T00:25:38.464Z,6.40
2018-05-24T00:26:38.933Z,6.42
2018-05-24T00:27:39.409Z,6.40
2018-05-24T00:28:39.881Z,6.39
2018-05-24T00:29:40.352Z,6.40
2018-05-24T00:30:40.823Z,6.39
2018-05-24T00:31:41.296Z,6.37
2018-05-24T00:32:41.768Z,6.37
2018-05-24T00:33:42.243Z,6.36
2018-05-24T00:35:43.183Z,6.35
2018-05-24T00:36:43.659Z,6.34
2018-05-24T00:37:44.123Z,6.33
2018-05-24T00:38:44.596Z,6.33
2018-05-24T00:39:45.069Z,6.33
2018-05-24T00:40:45.540Z,6.32
2018-05-24T00:41:46.007Z,6.32
2018-05-24T00:42:46.478Z,6.32
2018-05-24T00:43:46.949Z,6.30
2018-05-24T00:44:47.422Z,6.30
2018-05-24T00:45:47.889Z,6.29
2018-05-24T00:46:48.362Z,6.30
2018-05-24T00:47:48.881Z,6.28
2018-05-24T00:48:49.301Z,6.26
2018-05-24T00:49:49.772Z,6.26
2018-05-24T00:50:50.244Z,6.25
2018-05-24T00:51:50.714Z,6.24
2018-05-24T00:52:51.185Z,6.22
2018-05-24T00:53:51.859Z,6.22
2018-05-24T00:54:52.125Z,6.22
2018-05-24T00:55:52.598Z,6.20
2018-05-24T00:56:53.068Z,6.20
2018-05-24T00:57:53.538Z,6.19
2018-05-24T00:58:54.013Z,6.20
2018-05-24T00:59:54.484Z,6.18
2018-05-24T01:00:54.957Z,6.18
2018-05-24T01:01:55.425Z,6.16
2018-05-24T01:02:55.896Z,6.14
2018-05-24T01:03:56.370Z,6.14
2018-05-24T01:04:56.843Z,6.14
2018-05-24T01:05:57.314Z,6.13
2018-05-24T01:06:57.788Z,6.12
2018-05-24T01:07:58.309Z,6.12
2018-05-24T01:08:58.732Z,6.12
2018-05-24T01:09:59.203Z,6.10
2018-05-24T01:10:59.677Z,6.10
2018-05-24T01:12:00.150Z,6.10
2018-05-24T01:13:00.627Z,6.09
2018-05-24T01:14:01.096Z,6.07
2018-05-24T01:15:01.771Z,6.07
2018-05-24T01:16:02.043Z,6.06
2018-05-24T01:17:02.516Z,6.06
2018-05-24T01:18:02.989Z,6.05
2018-05-24T01:19:03.463Z,6.04
2018-05-24T01:20:03.937Z,6.04
2018-05-24T01:21:04.412Z,6.02
2018-05-24T01:22:04.885Z,6.02
2018-05-24T01:23:05.367Z,6.01
2018-05-24T01:24:05.836Z,6.00
2018-05-24T01:25:06.309Z,6.01
2018-05-24T01:26:06.780Z,5.99
2018-05-24T01:27:07.256Z,5.99
2018-05-24T01:28:07.933Z,6.00
2018-05-24T01:29:08.205Z,5.98
2018-05-24T01:30:08.678Z,5.98
2018-05-24T01:31:09.154Z,5.97
2018-05-24T01:32:09.629Z,5.96
2018-05-24T01:33:10.102Z,5.96
2018-05-24T01:34:10.585Z,5.96
2018-05-24T01:35:11.050Z,5.95
2018-05-24T01:36:11.525Z,5.95
2018-05-24T01:37:11.997Z,5.95
2018-05-24T01:38:12.530Z,5.92
2018-05-24T01:39:13.146Z,5.93
2018-05-24T01:40:13.421Z,5.91
2018-05-24T01:41:13.894Z,5.90
2018-05-24T01:42:14.364Z,5.90
2018-05-24T01:43:14.836Z,5.90
2018-05-24T01:44:15.310Z,5.90
2018-05-24T01:45:15.787Z,5.90
2018-05-24T01:46:16.255Z,5.87
2018-05-24T01:47:16.725Z,5.87
2018-05-24T01:48:17.402Z,5.88
2018-05-24T01:49:17.671Z,5.85
2018-05-24T01:50:18.147Z,5.87
2018-05-24T01:52:19.087Z,5.86
2018-05-24T01:53:19.606Z,5.84
2018-05-24T01:54:20.024Z,5.85
2018-05-24T01:55:20.496Z,5.85
2018-05-24T01:56:20.966Z,5.84
2018-05-24T01:57:21.438Z,5.82
2018-05-24T01:58:21.958Z,5.82
2018-05-24T01:59:22.381Z,5.82
2018-05-24T02:00:22.848Z,5.82
2018-05-24T02:01:23.322Z,5.82
2018-05-24T02:02:23.789Z,5.82
2018-05-24T02:03:24.260Z,5.81
2018-05-24T02:04:24.731Z,5.81
2018-05-24T02:05:25.203Z,5.81
2018-05-24T02:06:25.672Z,5.80
2018-05-24T02:07:26.143Z,5.78
2018-05-24T02:08:26.614Z,5.78
2018-05-24T02:09:27.085Z,5.79
2018-05-24T02:10:27.757Z,5.78
2018-05-24T02:11:28.026Z,5.78
2018-05-24T02:12:28.497Z,5.77
2018-05-24T02:13:28.969Z,5.77
2018-05-24T02:14:29.439Z,5.78
2018-05-24T02:15:29.913Z,5.76
2018-05-24T02:16:30.586Z,5.77
2018-05-24T02:17:30.854Z,5.77
2018-05-24T02:18:31.377Z,5.76
2018-05-24T02:19:31.797Z,5.76
2018-05-24T02:20:32.270Z,5.74
2018-05-24T02:21:32.743Z,5.74
2018-05-24T02:22:33.214Z,5.75
2018-05-24T02:23:33.684Z,5.75
2018-05-24T02:24:34.158Z,5.74
2018-05-24T02:25:34.635Z,5.74
2018-05-24T02:26:35.103Z,5.74
2018-05-24T02:27:35.579Z,5.73
2018-05-24T02:28:36.049Z,5.74
2018-05-24T02:29:36.523Z,5.74
2018-05-24T02:30:36.995Z,5.72
2018-05-24T02:31:37.467Z,5.72
2018-05-24T02:32:37.941Z,5.72
2018-05-24T02:33:38.414Z,5.72
2018-05-24T02:34:38.890Z,5.72
2018-05-24T02:35:39.361Z,5.71
2018-05-24T02:36:39.836Z,5.71
2018-05-24T02:37:40.309Z,5.70
2018-05-24T02:38:40.936Z,5.70
2018-05-24T02:39:41.260Z,5.70
2018-05-24T02:40:41.730Z,5.70
2018-05-24T02:41:42.210Z,5.68
2018-05-24T02:42:42.678Z,5.68
2018-05-24T02:43:43.205Z,5.68
2018-05-24T02:44:43.626Z,5.69
2018-05-24T02:45:44.102Z,5.69
2018-05-24T02:46:44.579Z,5.69
2018-05-24T02:47:45.251Z,5.68
2018-05-24T02:48:45.523Z,5.67
2018-05-24T02:49:45.999Z,5.69
2018-05-24T02:50:46.475Z,5.69
2018-05-24T02:51:46.947Z,5.68
2018-05-24T02:52:47.420Z,5.68
2018-05-24T02:53:47.894Z,5.68
2018-05-24T02:54:48.368Z,5.68
2018-05-24T02:55:48.840Z,5.66
2018-05-24T02:56:49.313Z,5.67
2018-05-24T02:57:49.791Z,5.66
2018-05-24T02:58:50.261Z,5.68
2018-05-24T02:59:50.734Z,5.66
2018-05-24T03:00:51.206Z,5.66
2018-05-24T03:01:51.681Z,5.64
2018-05-24T03:02:52.152Z,5.64
2018-05-24T03:03:52.625Z,5.64
2018-05-24T03:04:53.095Z,5.64
2018-05-24T03:05:53.566Z,5.64
2018-05-24T03:06:54.037Z,5.63
2018-05-24T03:07:54.510Z,5.62
2018-05-24T03:08:55.033Z,5.62
2018-05-24T03:09:55.451Z,5.61
2018-05-24T03:10:55.920Z,5.61
2018-05-24T03:11:56.394Z,5.61
2018-05-24T03:12:56.863Z,5.60
2018-05-24T03:13:57.334Z,5.60
2018-05-24T03:14:57.803Z,5.61
2018-05-24T03:15:58.275Z,5.59
2018-05-24T03:16:58.748Z,5.58
2018-05-24T03:17:59.215Z,5.60
2018-05-24T03:18:59.685Z,5.58
2018-05-24T03:20:00.157Z,5.58
2018-05-24T03:21:00.628Z,5.58
2018-05-24T03:22:01.099Z,5.58
2018-05-24T03:23:01.568Z,5.56
2018-05-24T03:24:02.090Z,5.57
2018-05-24T03:25:02.513Z,5.56
2018-05-24T03:27:03.450Z,5.56
2018-05-24T03:28:03.920Z,5.55
2018-05-24T03:29:04.392Z,5.54
2018-05-24T03:30:05.208Z,5.54
2018-05-24T03:31:05.334Z,5.54
2018-05-24T03:32:05.804Z,5.54
2018-05-24T03:33:06.277Z,5.54
2018-05-24T03:34:06.749Z,5.54
2018-05-24T03:35:07.233Z,5.52
2018-05-24T03:36:07.691Z,5.52
2018-05-24T03:38:08.633Z,5.52
2018-05-24T03:39:09.308Z,5.52
2018-05-24T03:40:09.580Z,5.52
2018-05-24T03:41:10.050Z,5.52
2018-05-24T03:42:10.524Z,5.51
2018-05-24T03:43:10.998Z,5.50
2018-05-24T03:44:11.468Z,5.51
2018-05-24T03:45:11.939Z,5.50
2018-05-24T03:46:12.419Z,5.50
2018-05-24T03:47:12.885Z,5.50
2018-05-24T03:48:13.359Z,5.50
2018-05-24T03:49:13.885Z,5.49
2018-05-24T03:50:14.306Z,5.49
2018-05-24T03:51:14.779Z,5.48
2018-05-24T03:52:15.293Z,5.48
2018-05-24T03:53:15.725Z,5.48
2018-05-24T03:54:16.252Z,5.48
2018-05-24T03:55:16.675Z,5.48
2018-05-24T03:56:17.181Z,5.48
2018-05-24T03:57:17.622Z,5.48
2018-05-24T03:58:18.094Z,5.47
2018-05-24T03:59:18.566Z,5.48
2018-05-24T04:00:19.041Z,5.47
2018-05-24T04:01:19.515Z,5.46
2018-05-24T04:02:19.995Z,5.46
2018-05-24T04:04:20.987Z,5.46
2018-05-24T04:05:21.411Z,5.45
2018-05-24T04:06:21.886Z,5.45
2018-05-24T04:07:22.360Z,5.46
2018-05-24T04:08:22.834Z,5.45
2018-05-24T04:09:23.318Z,5.44
2018-05-24T04:10:23.782Z,5.45
2018-05-24T04:11:24.257Z,5.45
2018-05-24T04:12:24.730Z,5.44
2018-05-24T04:13:25.206Z,5.44
2018-05-24T04:14:25.679Z,5.44
2018-05-24T04:15:26.153Z,5.44
2018-05-24T04:16:26.626Z,5.44
2018-05-24T04:17:27.101Z,5.44
2018-05-24T04:18:27.578Z,5.44
2018-05-24T04:19:28.045Z,5.43
2018-05-24T04:20:28.923Z,5.44
2018-05-24T04:21:28.991Z,5.42
2018-05-24T04:22:29.463Z,5.42
2018-05-24T04:23:29.935Z,5.42
2018-05-24T04:24:30.408Z,5.42
2018-05-24T04:25:30.879Z,5.42
2018-05-24T04:26:31.351Z,5.42
2018-05-24T04:27:31.828Z,5.41
2018-05-24T04:29:32.766Z,5.42
2018-05-24T04:30:33.236Z,5.41
2018-05-24T04:31:33.910Z,5.40
2018-05-24T04:32:34.176Z,5.40
2018-05-24T04:33:34.645Z,5.41
2018-05-24T04:34:35.118Z,5.40
2018-05-24T04:35:35.591Z,5.40
2018-05-24T04:36:36.059Z,5.40
2018-05-24T04:37:36.530Z,5.40
2018-05-24T04:38:37.004Z,5.40
2018-05-24T04:39:37.469Z,5.40
2018-05-24T04:40:37.942Z,5.40
2018-05-24T04:41:38.411Z,5.40
2018-05-24T04:42:38.887Z,5.38
2018-05-24T04:43:39.350Z,5.40
2018-05-24T04:44:39.974Z,5.39
2018-05-24T04:45:40.294Z,5.40
2018-05-24T04:46:40.966Z,5.40
2018-05-24T04:47:41.235Z,5.40
2018-05-24T04:48:41.704Z,5.39
2018-05-24T04:49:42.178Z,5.40
2018-05-24T04:50:42.650Z,5.40
2018-05-24T04:51:43.118Z,5.40
2018-05-24T04:52:43.590Z,5.39
2018-05-24T04:53:44.063Z,5.39
2018-05-24T04:54:44.535Z,5.40
2018-05-24T04:55:45.006Z,5.40
2018-05-24T04:56:45.478Z,5.38
2018-05-24T04:57:45.949Z,5.40
2018-05-24T04:58:46.421Z,5.40
2018-05-24T04:59:46.944Z,5.38
2018-05-24T05:00:47.365Z,5.38
2018-05-24T05:01:47.836Z,5.40
2018-05-24T05:02:48.313Z,5.41
2018-05-24T05:03:48.785Z,5.40
2018-05-24T05:04:49.308Z,5.39
2018-05-24T05:05:49.774Z,5.40
2018-05-24T05:06:50.204Z,5.41
2018-05-24T05:07:50.674Z,5.42
2018-05-24T05:08:51.147Z,5.40
2018-05-24T05:09:51.674Z,5.40
2018-05-24T05:10:52.097Z,5.42
2018-05-24T05:11:52.567Z,5.40
2018-05-24T05:12:53.040Z,5.41
2018-05-24T05:13:53.513Z,5.40
2018-05-24T05:14:53.987Z,5.42
2018-05-24T05:15:54.461Z,5.40
2018-05-24T05:16:54.940Z,5.41
2018-05-24T05:17:55.409Z,5.41
2018-05-24T05:18:55.885Z,5.41
2018-05-24T05:19:56.360Z,5.42
2018-05-24T05:20:56.836Z,5.42
2018-05-24T05:21:57.308Z,5.41
2018-05-24T05:22:57.783Z,5.41
2018-05-24T05:23:58.255Z,5.42
2018-05-24T05:24:58.780Z,5.42
2018-05-24T05:25:59.207Z,5.42
2018-05-24T05:26:59.680Z,5.43
2018-05-24T05:28:00.154Z,5.42
2018-05-24T05:29:00.631Z,5.42
2018-05-24T05:30:01.153Z,5.42
2018-05-24T05:31:01.575Z,5.43
2018-05-24T05:32:02.051Z,5.42
2018-05-24T05:33:02.523Z,5.42
2018-05-24T05:34:02.996Z,5.42
2018-05-24T05:35:03.625Z,5.42
2018-05-24T05:36:03.941Z,5.42
2018-05-24T05:37:04.426Z,5.44
2018-05-24T05:38:04.890Z,5.44
2018-05-24T05:39:05.369Z,5.44
2018-05-24T05:40:05.884Z,5.44
2018-05-24T05:41:06.307Z,5.44
2018-05-24T05:42:06.778Z,5.44
2018-05-24T05:43:07.255Z,5.44
2018-05-24T05:44:07.726Z,5.43
2018-05-24T05:45:08.195Z,5.45
2018-05-24T05:46:08.664Z,5.46
2018-05-24T05:47:09.138Z,5.46
2018-05-24T05:48:09.605Z,5.46
2018-05-24T05:49:10.080Z,5.46
2018-05-24T05:50:10.599Z,5.48
2018-05-24T05:51:11.020Z,5.46
2018-05-24T05:52:11.554Z,5.46
2018-05-24T05:53:11.961Z,5.48
2018-05-24T05:54:12.432Z,5.48
2018-05-24T05:55:12.953Z,5.48
2018-05-24T05:56:13.376Z,5.47
2018-05-24T05:57:13.842Z,5.49
2018-05-24T05:58:14.315Z,5.49
2018-05-24T05:59:14.786Z,5.51
2018-05-24T06:01:15.726Z,5.51
2018-05-24T06:02:16.197Z,5.52
2018-05-24T06:03:16.673Z,5.53
2018-05-24T06:04:17.139Z,5.54
2018-05-24T06:05:17.661Z,5.56
2018-05-24T06:06:18.081Z,5.56
2018-05-24T06:07:18.758Z,5.58
2018-05-24T06:08:19.023Z,5.58
2018-05-24T06:09:19.493Z,5.60
2018-05-24T06:10:19.964Z,5.62
2018-05-24T06:11:20.641Z,5.63
2018-05-24T06:12:20.909Z,5.66
2018-05-24T06:13:21.387Z,5.67
2018-05-24T06:14:21.853Z,5.70
2018-05-24T06:15:22.394Z,5.74
2018-05-24T06:16:22.802Z,5.76
2018-05-24T06:17:23.269Z,5.80
2018-05-24T06:18:23.744Z,5.84
2018-05-24T06:19:24.218Z,5.86
2018-05-24T06:20:24.688Z,5.92
2018-05-24T06:21:25.163Z,5.94
2018-05-24T06:22:25.634Z,5.96
2018-05-24T06:23:26.109Z,5.99
2018-05-24T06:24:26.580Z,6.02
2018-05-24T06:25:27.055Z,6.04
2018-05-24T06:26:27.529Z,6.08
2018-05-24T06:27:28.003Z,6.10
2018-05-24T06:28:28.556Z,6.14
2018-05-24T06:29:28.952Z,6.16
2018-05-24T06:30:29.475Z,6.20
2018-05-24T06:31:29.899Z,6.22
2018-05-24T06:32:30.378Z,6.24
2018-05-24T06:33:30.848Z,6.27
2018-05-24T06:34:31.322Z,6.29
2018-05-24T06:35:31.848Z,6.32
2018-05-24T06:36:32.271Z,6.36
2018-05-24T06:37:32.746Z,6.37
2018-05-24T06:38:33.423Z,6.39
2018-05-24T06:39:33.697Z,6.42
2018-05-24T06:40:34.204Z,6.45
2018-05-24T06:41:34.646Z,6.48
2018-05-24T06:42:35.125Z,6.50
2018-05-24T06:43:35.595Z,6.52
2018-05-24T06:44:36.068Z,6.56
2018-05-24T06:45:36.697Z,6.57
2018-05-24T06:46:37.020Z,6.60
2018-05-24T06:47:37.495Z,6.62
2018-05-24T06:48:37.965Z,6.65
2018-05-24T06:49:38.439Z,6.67
2018-05-24T06:50:38.912Z,6.69
2018-05-24T06:51:39.386Z,6.72
2018-05-24T06:52:39.859Z,6.74
2018-05-24T06:53:40.427Z,6.76
2018-05-24T06:54:40.804Z,6.79
2018-05-24T06:55:41.428Z,6.82
2018-05-24T06:56:41.750Z,6.86
2018-05-24T06:57:42.222Z,6.90
2018-05-24T06:58:42.702Z,6.92
2018-05-24T06:59:43.167Z,6.95
2018-05-24T07:00:43.639Z,6.98
2018-05-24T07:01:44.111Z,7.02
2018-05-24T07:02:44.581Z,7.04
2018-05-24T07:03:45.484Z,7.07
2018-05-24T07:04:45.549Z,7.12
2018-05-24T07:05:46.294Z,7.16
2018-05-24T07:06:46.467Z,7.18
2018-05-24T07:07:46.938Z,7.21
2018-05-24T07:08:47.410Z,7.27
2018-05-24T07:09:47.881Z,7.31
2018-05-24T07:10:48.403Z,7.36
2018-05-24T07:11:48.824Z,7.38
2018-05-24T07:12:49.294Z,7.44
2018-05-24T07:13:49.765Z,7.51
2018-05-24T07:14:50.237Z,7.55
2018-05-24T07:15:50.759Z,7.59
2018-05-24T07:16:51.383Z,7.63
2018-05-24T07:18:52.124Z,7.73
2018-05-24T07:19:52.596Z,7.76
2018-05-24T07:20:53.067Z,7.80
2018-05-24T07:21:53.539Z,7.84
2018-05-24T07:22:54.013Z,7.88
2018-05-24T07:23:54.485Z,7.92
2018-05-24T07:24:54.956Z,7.97
2018-05-24T07:25:55.480Z,8.01
2018-05-24T07:26:55.903Z,8.03
2018-05-24T07:27:56.375Z,8.08
2018-05-24T07:28:56.848Z,8.10
2018-05-24T07:29:57.321Z,8.16
2018-05-24T07:30:57.794Z,8.18
2018-05-24T07:31:58.271Z,8.22
2018-05-24T07:32:58.944Z,8.26
2018-05-24T07:33:59.215Z,8.30
2018-05-24T07:34:59.689Z,8.32
2018-05-24T07:36:00.319Z,8.36
2018-05-24T07:37:00.637Z,8.39
2018-05-24T07:38:01.112Z,8.44
2018-05-24T07:39:01.591Z,8.46
2018-05-24T07:40:02.063Z,8.51
2018-05-24T07:41:02.536Z,8.53
2018-05-24T07:42:03.215Z,8.56
2018-05-24T07:43:03.496Z,8.60
2018-05-24T07:44:03.963Z,8.62
2018-05-24T07:45:04.452Z,8.65
2018-05-24T07:46:04.918Z,8.69
2018-05-24T07:47:05.387Z,8.72
2018-05-24T07:48:05.863Z,8.74
2018-05-24T07:49:06.338Z,8.78
2018-05-24T07:50:06.817Z,8.82
2018-05-24T07:51:07.338Z,8.84
2018-05-24T07:52:07.965Z,8.88
2018-05-24T07:53:08.241Z,8.90
2018-05-24T07:54:08.713Z,8.94
2018-05-24T07:55:09.390Z,8.96
2018-05-24T07:57:10.135Z,9.02
2018-05-24T07:58:10.611Z,9.06
2018-05-24T07:59:11.083Z,9.12
2018-05-24T08:00:11.558Z,9.14
2018-05-24T08:01:12.031Z,9.19
2018-05-24T08:02:12.505Z,9.23
2018-05-24T08:03:12.978Z,9.28
2018-05-24T08:04:13.458Z,9.33
2018-05-24T08:05:13.924Z,9.36
2018-05-24T08:06:14.455Z,9.42
2018-05-24T08:07:14.876Z,9.48
2018-05-24T08:08:15.343Z,9.53
2018-05-24T08:09:15.815Z,9.58
2018-05-24T08:10:16.293Z,9.62
2018-05-24T08:11:16.911Z,9.68
2018-05-24T08:12:17.435Z,9.74
2018-05-24T08:13:17.747Z,9.78
2018-05-24T08:14:18.176Z,9.84
2018-05-24T08:15:18.648Z,9.88
2018-05-24T08:16:19.479Z,9.93
2018-05-24T08:17:19.592Z,9.98
2018-05-24T08:18:20.067Z,10.04
2018-05-24T08:19:20.538Z,10.08
2018-05-24T08:20:21.007Z,10.13
2018-05-24T08:21:21.531Z,10.17
2018-05-24T08:22:21.951Z,10.22
2018-05-24T08:23:22.423Z,10.27
2018-05-24T08:24:22.894Z,10.33
2018-05-24T08:25:23.367Z,10.34
2018-05-24T08:26:23.840Z,10.38
2018-05-24T08:27:24.513Z,10.44
2018-05-24T08:28:24.783Z,10.48
2018-05-24T08:29:25.259Z,10.51
2018-05-24T08:30:25.728Z,10.56
2018-05-24T08:31:26.402Z,10.60
2018-05-24T08:32:26.673Z,10.63
2018-05-24T08:33:27.145Z,10.68
2018-05-24T08:34:27.621Z,10.72
2018-05-24T08:35:28.097Z,10.76
2018-05-24T08:36:28.618Z,10.81
2018-05-24T08:37:29.039Z,10.86
2018-05-24T08:38:29.513Z,10.90
2018-05-24T08:39:29.987Z,10.93
2018-05-24T08:40:30.555Z,10.98
2018-05-24T08:41:30.937Z,11.02
2018-05-24T08:42:31.414Z,11.08
2018-05-24T08:43:31.954Z,11.14
2018-05-24T08:44:32.564Z,11.22
2018-05-24T08:45:32.835Z,11.29
2018-05-24T08:46:33.365Z,11.38
2018-05-24T08:47:33.788Z,11.46
2018-05-24T08:48:34.263Z,11.53
2018-05-24T08:49:34.741Z,11.62
2018-05-24T08:50:35.218Z,11.70
2018-05-24T08:51:35.843Z,11.77
2018-05-24T08:52:36.170Z,11.86
2018-05-24T08:53:36.642Z,11.94
2018-05-24T08:54:37.120Z,12.02
2018-05-24T08:55:37.594Z,12.10
2018-05-24T08:56:38.071Z,12.17
2018-05-24T08:57:38.545Z,12.24
2018-05-24T08:58:39.025Z,12.32
2018-05-24T08:59:39.503Z,12.36
2018-05-24T09:00:39.975Z,12.43
2018-05-24T09:01:40.451Z,12.49
2018-05-24T09:02:40.931Z,12.54
2018-05-24T09:03:41.399Z,12.60
2018-05-24T09:04:41.878Z,12.66
2018-05-24T09:05:42.350Z,12.72
2018-05-24T09:06:42.824Z,12.76
2018-05-24T09:07:43.300Z,12.80
2018-05-24T09:08:43.978Z,12.84
2018-05-24T09:09:44.250Z,12.87
2018-05-24T09:10:44.723Z,12.92
2018-05-24T09:11:45.247Z,12.96
2018-05-24T09:12:45.670Z,13.01
2018-05-24T09:13:46.148Z,13.05
2018-05-24T09:14:46.620Z,13.08
2018-05-24T09:15:47.096Z,13.10
2018-05-24T09:16:47.569Z,13.14
2018-05-24T09:17:48.242Z,13.18
2018-05-24T09:18:48.514Z,13.22
2018-05-24T09:19:48.988Z,13.23
2018-05-24T09:20:49.459Z,13.30
2018-05-24T09:21:50.005Z,13.32
2018-05-24T09:22:50.405Z,13.36
2018-05-24T09:23:50.877Z,13.40
2018-05-24T09:24:51.356Z,13.42
2018-05-24T09:25:51.825Z,13.46
2018-05-24T09:26:52.345Z,13.48
2018-05-24T09:27:52.767Z,13.52
2018-05-24T09:28:53.241Z,13.58
2018-05-24T09:29:53.915Z,13.60
2018-05-24T09:30:54.186Z,13.62
2018-05-24T09:31:54.655Z,13.65
2018-05-24T09:32:55.129Z,13.68
2018-05-24T09:33:55.608Z,13.70
2018-05-24T09:34:56.071Z,13.72
2018-05-24T09:36:57.069Z,13.76
2018-05-24T09:37:57.489Z,13.78
2018-05-24T09:38:57.962Z,13.79
2018-05-24T09:39:58.436Z,13.81
2018-05-24T09:40:58.908Z,13.82
2018-05-24T09:41:59.431Z,13.84
2018-05-24T09:42:59.860Z,13.87
2018-05-24T09:44:00.327Z,13.86
2018-05-24T09:45:00.803Z,13.87
2018-05-24T09:46:01.275Z,13.88
2018-05-24T09:47:01.900Z,13.90
2018-05-24T09:48:02.426Z,13.90
2018-05-24T09:50:03.171Z,13.93
2018-05-24T09:51:03.645Z,13.94
2018-05-24T09:52:04.169Z,13.94
2018-05-24T09:53:04.598Z,13.96
2018-05-24T09:54:05.070Z,13.96
2018-05-24T09:55:05.545Z,13.97
2018-05-24T09:56:06.100Z,13.98
2018-05-24T09:57:06.547Z,13.99
2018-05-24T09:58:07.312Z,13.98
2018-05-24T09:59:07.450Z,14.00
2018-05-24T10:00:07.924Z,14.02
2018-05-24T10:01:08.401Z,14.00
2018-05-24T10:02:08.875Z,14.00
2018-05-24T10:03:09.350Z,14.02
2018-05-24T10:04:09.828Z,14.02
2018-05-24T10:05:10.303Z,14.03
2018-05-24T10:06:10.780Z,14.02
2018-05-24T10:07:11.254Z,14.02
2018-05-24T10:08:11.938Z,14.03
2018-05-24T10:09:12.207Z,14.02
2018-05-24T10:10:12.689Z,14.02
2018-05-24T10:11:13.166Z,14.04
2018-05-24T10:12:13.684Z,14.03
2018-05-24T10:13:14.115Z,14.03
2018-05-24T10:14:14.584Z,14.04
2018-05-24T10:15:15.062Z,14.02
2018-05-24T10:16:15.648Z,14.04
2018-05-24T10:17:16.010Z,14.03
2018-05-24T10:18:16.539Z,14.02
2018-05-24T10:19:16.958Z,14.02
2018-05-24T10:20:17.433Z,14.02
2018-05-24T10:21:17.907Z,14.02
2018-05-24T10:22:18.381Z,14.01
2018-05-24T10:23:18.855Z,14.00
2018-05-24T10:24:19.329Z,14.00
2018-05-24T10:25:19.803Z,13.98
2018-05-24T10:26:20.275Z,13.99
2018-05-24T10:27:20.901Z,13.98
2018-05-24T10:28:21.223Z,13.97
2018-05-24T10:29:21.700Z,13.96
2018-05-24T10:30:22.170Z,13.94
2018-05-24T10:31:22.644Z,13.95
2018-05-24T10:32:23.119Z,13.96
2018-05-24T10:34:24.060Z,13.95
2018-05-24T10:35:24.534Z,13.94
2018-05-24T10:36:25.006Z,13.94
2018-05-24T10:37:25.478Z,13.94
2018-05-24T10:38:25.950Z,13.94
2018-05-24T10:39:26.501Z,13.94
2018-05-24T10:40:26.894Z,13.94
2018-05-24T10:41:27.366Z,13.94
2018-05-24T10:42:27.840Z,13.95
2018-05-24T10:43:28.313Z,13.94
2018-05-24T10:44:28.784Z,13.96
2018-05-24T10:45:29.594Z,13.96
2018-05-24T10:46:29.724Z,13.98
2018-05-24T10:47:30.197Z,13.99
2018-05-24T10:48:30.668Z,14.00
2018-05-24T10:49:31.142Z,14.00
2018-05-24T10:50:31.613Z,14.02
2018-05-24T10:51:32.085Z,14.02
2018-05-24T10:52:32.611Z,14.02
2018-05-24T10:53:33.032Z,14.04
2018-05-24T10:54:33.504Z,14.04
2018-05-24T10:55:33.976Z,14.06
2018-05-24T10:56:34.451Z,14.07
2018-05-24T10:57:34.977Z,14.08
2018-05-24T10:58:35.395Z,14.09
2018-05-24T10:59:35.945Z,14.09
2018-05-24T11:00:36.343Z,14.10
2018-05-24T11:01:36.817Z,14.11
2018-05-24T11:02:37.306Z,14.12
2018-05-24T11:03:37.765Z,14.12
2018-05-24T11:04:38.240Z,14.12
2018-05-24T11:05:38.715Z,14.11
2018-05-24T11:06:39.194Z,14.11
2018-05-24T11:07:39.719Z,14.12
2018-05-24T11:08:40.142Z,14.12
2018-05-24T11:09:40.615Z,14.12
2018-05-24T11:10:41.090Z,14.12
2018-05-24T11:11:41.653Z,14.12
2018-05-24T11:12:42.041Z,14.11
2018-05-24T11:13:42.588Z,14.12
2018-05-24T11:14:42.995Z,14.10
2018-05-24T11:15:43.474Z,14.10
2018-05-24T11:16:43.947Z,14.09
2018-05-24T11:18:44.896Z,14.10
2018-05-24T11:19:45.374Z,14.08
2018-05-24T11:20:45.847Z,14.08
2018-05-24T11:21:46.324Z,14.07
2018-05-24T11:22:47.002Z,14.06
2018-05-24T11:23:47.273Z,14.05
2018-05-24T11:24:47.750Z,14.04
2018-05-24T11:25:48.252Z,14.03
2018-05-24T11:26:48.700Z,14.02
2018-05-24T11:27:49.327Z,14.00
2018-05-24T11:28:49.650Z,14.00
2018-05-24T11:29:50.126Z,13.98
2018-05-24T11:30:50.598Z,13.97
2018-05-24T11:31:51.084Z,13.95
2018-05-24T11:32:51.548Z,13.94
2018-05-24T11:33:52.023Z,13.92
2018-05-24T11:34:52.497Z,13.91
2018-05-24T11:35:52.970Z,13.88
2018-05-24T11:36:53.446Z,13.88
2018-05-24T11:37:53.916Z,13.87
2018-05-24T11:38:54.391Z,13.84
2018-05-24T11:39:54.864Z,13.83
2018-05-24T11:40:55.340Z,13.83
2018-05-24T11:41:55.811Z,13.79
2018-05-24T11:42:56.436Z,13.76
2018-05-24T11:43:57.100Z,13.76
2018-05-24T11:44:57.231Z,13.73
2018-05-24T11:45:57.702Z,13.69
2018-05-24T11:46:58.174Z,13.68
2018-05-24T11:47:58.697Z,13.65
2018-05-24T11:49:59.597Z,13.58
2018-05-24T11:51:00.065Z,13.55
2018-05-24T11:52:00.614Z,13.52
2018-05-24T11:53:01.006Z,13.49
2018-05-24T11:54:01.481Z,13.46
2018-05-24T11:55:01.949Z,13.40
2018-05-24T11:56:02.424Z,13.36
2018-05-24T11:57:02.891Z,13.34
2018-05-24T11:58:03.515Z,13.30
2018-05-24T11:59:03.834Z,13.26
2018-05-24T12:00:04.306Z,13.22
2018-05-24T12:01:04.779Z,13.18
2018-05-24T12:02:05.249Z,13.14
2018-05-24T12:03:05.973Z,13.09
2018-05-24T12:05:06.663Z,13.04
2018-05-24T12:06:07.138Z,13.02
2018-05-24T12:07:07.662Z,13.00
2018-05-24T12:08:08.333Z,12.96
2018-05-24T12:09:08.551Z,12.94
2018-05-24T12:10:09.029Z,12.92
2018-05-24T12:11:09.496Z,12.91
2018-05-24T12:12:09.971Z,12.89
2018-05-24T12:13:10.442Z,12.87
2018-05-24T12:14:10.915Z,12.88
2018-05-24T12:15:11.401Z,12.86
2018-05-24T12:17:12.336Z,12.86
2018-05-24T12:18:12.812Z,12.85
2018-05-24T12:19:13.283Z,12.87
2018-05-24T12:20:13.756Z,12.86
2018-05-24T12:21:14.233Z,12.86
2018-05-24T12:22:14.710Z,12.86
2018-05-24T12:23:15.185Z,12.87
2018-05-24T12:24:15.657Z,12.87
2018-05-24T12:25:16.134Z,12.88
2018-05-24T12:26:16.613Z,12.88
2018-05-24T12:28:17.610Z,12.88
2018-05-24T12:29:18.036Z,12.88
2018-05-24T12:30:18.512Z,12.88
2018-05-24T12:31:18.987Z,12.91
2018-05-24T12:32:19.462Z,12.91
2018-05-24T12:33:19.993Z,12.93
2018-05-24T12:34:20.617Z,12.92
2018-05-24T12:35:20.930Z,12.96
2018-05-24T12:36:21.367Z,12.97
2018-05-24T12:37:21.847Z,13.01
2018-05-24T12:38:22.318Z,13.01
2018-05-24T12:39:22.795Z,13.04
2018-05-24T12:40:23.269Z,13.06
2018-05-24T12:41:23.745Z,13.08
2018-05-24T12:42:24.220Z,13.10
2018-05-24T12:43:24.895Z,13.14
2018-05-24T12:44:25.168Z,13.18
2018-05-24T12:45:25.646Z,13.20
2018-05-24T12:46:26.120Z,13.24
2018-05-24T12:47:26.593Z,13.28
2018-05-24T12:48:27.119Z,13.30
2018-05-24T12:49:27.543Z,13.32
2018-05-24T12:50:28.018Z,13.35
2018-05-24T12:51:28.492Z,13.38
2018-05-24T12:52:28.966Z,13.41
2018-05-24T12:53:29.440Z,13.45
2018-05-24T12:54:29.914Z,13.48
2018-05-24T12:55:30.388Z,13.50
2018-05-24T12:56:30.863Z,13.54
2018-05-24T12:57:31.338Z,13.58
2018-05-24T12:58:31.807Z,13.60
2018-05-24T12:59:32.282Z,13.64
2018-05-24T13:00:32.755Z,13.66
2018-05-24T13:01:33.229Z,13.70
2018-05-24T13:02:33.703Z,13.73
2018-05-24T13:03:34.175Z,13.74
2018-05-24T13:04:34.646Z,13.76
2018-05-24T13:05:35.123Z,13.77
2018-05-24T13:06:35.593Z,13.80
2018-05-24T13:07:36.064Z,13.82
2018-05-24T13:08:36.619Z,13.86
2018-05-24T13:09:37.009Z,13.86
2018-05-24T13:11:37.953Z,13.90
2018-05-24T13:12:38.424Z,13.92
2018-05-24T13:13:39.151Z,13.92
2018-05-24T13:14:39.371Z,13.93
2018-05-24T13:15:39.841Z,13.95
2018-05-24T13:16:40.311Z,13.95
2018-05-24T13:17:40.785Z,13.98
2018-05-24T13:18:41.257Z,13.97
2018-05-24T13:19:41.729Z,13.98
2018-05-24T13:20:42.202Z,14.00
2018-05-24T13:21:42.672Z,14.02
2018-05-24T13:22:43.145Z,14.03
2018-05-24T13:23:43.769Z,14.03
2018-05-24T13:24:44.091Z,14.04
2018-05-24T13:25:44.563Z,14.06
2018-05-24T13:26:45.036Z,14.07
2018-05-24T13:27:45.508Z,14.06
2018-05-24T13:28:45.984Z,14.10
2018-05-24T13:29:46.456Z,14.10
2018-05-24T13:30:46.928Z,14.10
2018-05-24T13:31:47.402Z,14.10
2018-05-24T13:32:47.876Z,14.13